Alpicat, Spain
Current Conditions -  °F | °C
As of 10:00 PM on Wednesday 17 Dec 2014 (Local Time) from LERS Reporting Station
Few Clouds Few Clouds  
Wind Chill: 59°   Ceiling: Unl
Heat Index: 59°   Visibility: 6mi
Dew Point: 45°   Wind: 13mph
Humidity: 59%   Direction: 260°W
Pressure: 30.12"   Gusts: NA
Location:  41.67°N, 0.56°E
Report Text: LERS 172100Z 26011KT 210V300 9999 FEW035 15/07 Q1020
Loading
Personal Weather Stations






























Interactive Weather Map New forecast layout! Learn more

10-Day Weather Forecast

Advertisements
Track Severe Weather on mobile